Strona główna
METAR-TAF:

METAR-TAF

Lotnisko :

Port lotniczy Niamey

Niamey, Niger

Szerokość geograficzna: 13-29N, Długość geograficzna: 002-10E, wysokość: 223 m

Aktualna obserwacja pogody

Raport powstał 1 godzina i 16 minut temu, godzina 01:00 UTC
Wiatr 8 kt od zachodnio-południowy zachód
Temperatura 34°C
Wilgotność 39%
Ciśnienie 1009 hPa
Widzialność 10 km lub więcej
Brak chmur poniżej 1500 m i brak chmur cumulonimbus

METAR: DRRN 040100Z 24008KT CAVOK 34/18 Q1009 NOSIG

czas: 03:16 (02:16 UTC)

Prognoza

Raport powstał 3 godziny i 16 minut temu, godzina 23:00 UTC
Prognoza ważna od 04 godzina 00 UTC do 05 godzina 06 UTC
Wiatr 10 kt od zachodnio-południowy zachód
Widzialność: 8000 m
Przejściowo
od 04 godzina 13 UTC do 04 godzina 18 UTC
Mało chmury na wysokości 4000 ft, Cumulonimbus.
burza

TAF: DRRN 032300Z 0400/0506 24010KT 8000 NSC TEMPO 0413/0418 TS FEW040CB

Obserwacja i prognoza pogody dla ponad 4000 lotnisk (raport METAR i TAF).

Dostępne stacje oznaczono żółtymi i czerwonymi punktami na mapie.

Najedź kursorem aby zobaczyć nazwę stacji.

Kliknij aby zobaczyć obserwacje i prognozy pogody.

Aby zmienić mapę: kliknij na zielony przycisk z czarnym krzyżykiem, aby powiększyć; na zielony przycisk z myślnikiem, aby pomniejszyć; na zielone strzałki, aby przejść do map sąsiednich.


METAR-TAF: